sensor_id;sensor_type;location;lat;lon;timestamp;temperature;humidity
12726;DHT22;6427;49.754;6.106;2022-07-03T00:01:53;16.70;99.90
12726;DHT22;6427;49.754;6.106;2022-07-03T00:04:21;16.70;99.90
12726;DHT22;6427;49.754;6.106;2022-07-03T00:06:48;16.70;99.90
12726;DHT22;6427;49.754;6.106;2022-07-03T00:09:16;16.60;99.90
12726;DHT22;6427;49.754;6.106;2022-07-03T00:11:44;16.60;99.90
12726;DHT22;6427;49.754;6.106;2022-07-03T00:14:12;16.50;99.90
12726;DHT22;6427;49.754;6.106;2022-07-03T00:16:40;16.50;99.90
12726;DHT22;6427;49.754;6.106;2022-07-03T00:19:09;16.40;99.90
12726;DHT22;6427;49.754;6.106;2022-07-03T00:21:55;16.40;99.90
12726;DHT22;6427;49.754;6.106;2022-07-03T00:24:29;16.40;99.90
12726;DHT22;6427;49.754;6.106;2022-07-03T00:26:56;16.60;99.90
12726;DHT22;6427;49.754;6.106;2022-07-03T00:29:23;16.50;99.90
12726;DHT22;6427;49.754;6.106;2022-07-03T00:31:52;16.30;99.90
12726;DHT22;6427;49.754;6.106;2022-07-03T00:34:19;16.30;99.90
12726;DHT22;6427;49.754;6.106;2022-07-03T00:36:47;16.30;99.90
12726;DHT22;6427;49.754;6.106;2022-07-03T00:39:15;16.40;99.90
12726;DHT22;6427;49.754;6.106;2022-07-03T00:41:43;16.40;99.90
12726;DHT22;6427;49.754;6.106;2022-07-03T00:44:10;16.40;99.90
12726;DHT22;6427;49.754;6.106;2022-07-03T00:46:40;16.30;99.90
12726;DHT22;6427;49.754;6.106;2022-07-03T00:49:08;16.30;99.90
12726;DHT22;6427;49.754;6.106;2022-07-03T00:51:35;16.20;99.90
12726;DHT22;6427;49.754;6.106;2022-07-03T00:54:02;16.10;99.90
12726;DHT22;6427;49.754;6.106;2022-07-03T00:56:30;16.10;99.90
12726;DHT22;6427;49.754;6.106;2022-07-03T00:58:58;16.00;99.90
12726;DHT22;6427;49.754;6.106;2022-07-03T01:01:29;15.90;99.90
12726;DHT22;6427;49.754;6.106;2022-07-03T01:04:01;16.10;99.90
12726;DHT22;6427;49.754;6.106;2022-07-03T01:06:23;16.00;99.90
12726;DHT22;6427;49.754;6.106;2022-07-03T01:08:51;16.00;99.90
12726;DHT22;6427;49.754;6.106;2022-07-03T01:11:31;15.80;99.90
12726;DHT22;6427;49.754;6.106;2022-07-03T01:14:15;15.70;99.90
12726;DHT22;6427;49.754;6.106;2022-07-03T01:19:44;15.60;99.90
12726;DHT22;6427;49.754;6.106;2022-07-03T01:27:56;15.40;99.90
12726;DHT22;6427;49.754;6.106;2022-07-03T01:30:23;15.40;99.90
12726;DHT22;6427;49.754;6.106;2022-07-03T01:32:58;15.30;99.90
12726;DHT22;6427;49.754;6.106;2022-07-03T01:35:38;15.50;99.90
12726;DHT22;6427;49.754;6.106;2022-07-03T01:37:55;15.50;99.90
12726;DHT22;6427;49.754;6.106;2022-07-03T01:40:22;15.40;99.90
12726;DHT22;6427;49.754;6.106;2022-07-03T01:42:50;15.60;99.90
12726;DHT22;6427;49.754;6.106;2022-07-03T01:45:18;15.60;99.90
12726;DHT22;6427;49.754;6.106;2022-07-03T01:47:45;15.50;99.90
12726;DHT22;6427;49.754;6.106;2022-07-03T01:50:14;15.40;99.90
12726;DHT22;6427;49.754;6.106;2022-07-03T01:52:41;15.60;99.90
12726;DHT22;6427;49.754;6.106;2022-07-03T01:55:11;15.50;99.90
12726;DHT22;6427;49.754;6.106;2022-07-03T01:57:48;15.40;99.90
12726;DHT22;6427;49.754;6.106;2022-07-03T02:00:16;15.30;99.90
12726;DHT22;6427;49.754;6.106;2022-07-03T02:02:44;15.20;99.90
12726;DHT22;6427;49.754;6.106;2022-07-03T02:10:42;15.10;99.90
12726;DHT22;6427;49.754;6.106;2022-07-03T02:13:08;15.10;99.90
12726;DHT22;6427;49.754;6.106;2022-07-03T02:15:35;15.10;99.90
12726;DHT22;6427;49.754;6.106;2022-07-03T02:18:08;15.00;99.90
12726;DHT22;6427;49.754;6.106;2022-07-03T02:20:31;14.90;99.90
12726;DHT22;6427;49.754;6.106;2022-07-03T02:23:02;14.90;99.90
12726;DHT22;6427;49.754;6.106;2022-07-03T02:25:35;14.80;99.90
12726;DHT22;6427;49.754;6.106;2022-07-03T02:30:38;14.70;99.90
12726;DHT22;6427;49.754;6.106;2022-07-03T02:33:06;14.70;99.90
12726;DHT22;6427;49.754;6.106;2022-07-03T02:35:34;14.60;99.90
12726;DHT22;6427;49.754;6.106;2022-07-03T02:38:07;14.60;99.90
12726;DHT22;6427;49.754;6.106;2022-07-03T02:43:15;14.50;99.90
12726;DHT22;6427;49.754;6.106;2022-07-03T02:46:20;14.50;99.90
12726;DHT22;6427;49.754;6.106;2022-07-03T02:48:31;14.50;99.90
12726;DHT22;6427;49.754;6.106;2022-07-03T02:50:57;14.40;99.90
12726;DHT22;6427;49.754;6.106;2022-07-03T02:55:50;14.40;99.90
12726;DHT22;6427;49.754;6.106;2022-07-03T02:58:51;14.50;99.90
12726;DHT22;6427;49.754;6.106;2022-07-03T03:03:43;14.50;99.90
12726;DHT22;6427;49.754;6.106;2022-07-03T03:06:15;14.40;99.90
12726;DHT22;6427;49.754;6.106;2022-07-03T03:08:47;14.50;99.90
12726;DHT22;6427;49.754;6.106;2022-07-03T03:11:24;14.50;99.90
12726;DHT22;6427;49.754;6.106;2022-07-03T03:13:53;14.40;99.90
12726;DHT22;6427;49.754;6.106;2022-07-03T03:16:18;14.40;99.90
12726;DHT22;6427;49.754;6.106;2022-07-03T03:18:46;14.30;99.90
12726;DHT22;6427;49.754;6.106;2022-07-03T03:21:15;14.50;99.90
12726;DHT22;6427;49.754;6.106;2022-07-03T03:23:45;14.40;99.90
12726;DHT22;6427;49.754;6.106;2022-07-03T03:26:12;14.30;99.90
12726;DHT22;6427;49.754;6.106;2022-07-03T03:28:41;14.20;99.90
12726;DHT22;6427;49.754;6.106;2022-07-03T03:31:09;14.20;99.90
12726;DHT22;6427;49.754;6.106;2022-07-03T03:33:40;14.10;99.90
12726;DHT22;6427;49.754;6.106;2022-07-03T03:36:10;14.10;99.90
12726;DHT22;6427;49.754;6.106;2022-07-03T03:38:38;14.00;99.90
12726;DHT22;6427;49.754;6.106;2022-07-03T03:41:06;14.00;99.90
12726;DHT22;6427;49.754;6.106;2022-07-03T03:43:34;14.20;99.90
12726;DHT22;6427;49.754;6.106;2022-07-03T03:46:01;14.10;99.90
12726;DHT22;6427;49.754;6.106;2022-07-03T03:48:29;14.40;99.90
12726;DHT22;6427;49.754;6.106;2022-07-03T03:50:57;14.30;99.90
12726;DHT22;6427;49.754;6.106;2022-07-03T03:53:24;14.20;99.90
12726;DHT22;6427;49.754;6.106;2022-07-03T03:55:53;14.20;99.90
12726;DHT22;6427;49.754;6.106;2022-07-03T03:58:19;14.10;99.90
12726;DHT22;6427;49.754;6.106;2022-07-03T04:00:47;14.00;99.90
12726;DHT22;6427;49.754;6.106;2022-07-03T04:03:14;13.90;99.90
12726;DHT22;6427;49.754;6.106;2022-07-03T04:05:42;13.80;99.90
12726;DHT22;6427;49.754;6.106;2022-07-03T04:08:10;14.00;99.90
12726;DHT22;6427;49.754;6.106;2022-07-03T04:10:37;13.90;99.90
12726;DHT22;6427;49.754;6.106;2022-07-03T04:13:05;13.90;99.90
12726;DHT22;6427;49.754;6.106;2022-07-03T04:15:32;13.80;99.90
12726;DHT22;6427;49.754;6.106;2022-07-03T04:18:00;13.80;99.90
12726;DHT22;6427;49.754;6.106;2022-07-03T04:20:27;13.80;99.90
12726;DHT22;6427;49.754;6.106;2022-07-03T04:22:55;13.70;99.90
12726;DHT22;6427;49.754;6.106;2022-07-03T04:25:23;13.80;99.90
12726;DHT22;6427;49.754;6.106;2022-07-03T04:27:50;13.80;99.90
12726;DHT22;6427;49.754;6.106;2022-07-03T04:30:18;14.00;99.90
12726;DHT22;6427;49.754;6.106;2022-07-03T04:32:46;14.00;99.90
12726;DHT22;6427;49.754;6.106;2022-07-03T04:35:15;14.00;99.90
12726;DHT22;6427;49.754;6.106;2022-07-03T04:37:43;14.00;99.90
12726;DHT22;6427;49.754;6.106;2022-07-03T04:40:10;14.10;99.90
12726;DHT22;6427;49.754;6.106;2022-07-03T04:42:38;14.10;99.90
12726;DHT22;6427;49.754;6.106;2022-07-03T04:45:06;14.40;99.90
12726;DHT22;6427;49.754;6.106;2022-07-03T04:47:34;14.40;99.90
12726;DHT22;6427;49.754;6.106;2022-07-03T04:50:01;14.40;99.90
12726;DHT22;6427;49.754;6.106;2022-07-03T04:52:30;14.40;99.90
12726;DHT22;6427;49.754;6.106;2022-07-03T04:54:57;14.40;99.90
12726;DHT22;6427;49.754;6.106;2022-07-03T04:57:25;14.40;99.90
12726;DHT22;6427;49.754;6.106;2022-07-03T04:59:52;14.40;99.90
12726;DHT22;6427;49.754;6.106;2022-07-03T05:02:21;14.70;99.90
12726;DHT22;6427;49.754;6.106;2022-07-03T05:04:48;14.70;99.90
12726;DHT22;6427;49.754;6.106;2022-07-03T05:07:16;14.70;99.90
12726;DHT22;6427;49.754;6.106;2022-07-03T05:09:44;14.70;99.90
12726;DHT22;6427;49.754;6.106;2022-07-03T05:12:13;14.80;99.90
12726;DHT22;6427;49.754;6.106;2022-07-03T05:14:41;14.80;99.90
12726;DHT22;6427;49.754;6.106;2022-07-03T05:17:09;14.80;99.90
12726;DHT22;6427;49.754;6.106;2022-07-03T05:19:40;14.80;99.90
12726;DHT22;6427;49.754;6.106;2022-07-03T05:22:08;15.00;99.90
12726;DHT22;6427;49.754;6.106;2022-07-03T05:24:35;14.90;99.90
12726;DHT22;6427;49.754;6.106;2022-07-03T05:27:03;15.00;99.90
12726;DHT22;6427;49.754;6.106;2022-07-03T05:29:31;15.10;99.90
12726;DHT22;6427;49.754;6.106;2022-07-03T05:31:58;15.10;99.90
12726;DHT22;6427;49.754;6.106;2022-07-03T05:34:27;15.20;99.90
12726;DHT22;6427;49.754;6.106;2022-07-03T05:36:55;15.30;99.90
12726;DHT22;6427;49.754;6.106;2022-07-03T05:39:23;15.30;99.90
12726;DHT22;6427;49.754;6.106;2022-07-03T05:42:00;15.40;99.90
12726;DHT22;6427;49.754;6.106;2022-07-03T05:44:27;15.50;99.90
12726;DHT22;6427;49.754;6.106;2022-07-03T05:46:56;15.70;99.90
12726;DHT22;6427;49.754;6.106;2022-07-03T05:49:24;15.60;99.90
12726;DHT22;6427;49.754;6.106;2022-07-03T05:51:54;15.80;99.90
12726;DHT22;6427;49.754;6.106;2022-07-03T05:54:22;15.80;99.90
12726;DHT22;6427;49.754;6.106;2022-07-03T05:56:49;15.90;99.90
12726;DHT22;6427;49.754;6.106;2022-07-03T05:59:17;16.20;99.90
12726;DHT22;6427;49.754;6.106;2022-07-03T06:01:45;16.50;99.90
12726;DHT22;6427;49.754;6.106;2022-07-03T06:04:13;16.50;99.90
12726;DHT22;6427;49.754;6.106;2022-07-03T06:06:41;16.60;99.90
12726;DHT22;6427;49.754;6.106;2022-07-03T06:09:08;16.60;99.90
12726;DHT22;6427;49.754;6.106;2022-07-03T06:11:37;16.60;99.90
12726;DHT22;6427;49.754;6.106;2022-07-03T06:14:04;16.60;99.90
12726;DHT22;6427;49.754;6.106;2022-07-03T06:16:33;16.60;99.90
12726;DHT22;6427;49.754;6.106;2022-07-03T06:19:01;16.70;99.90
12726;DHT22;6427;49.754;6.106;2022-07-03T06:21:29;16.70;99.90
12726;DHT22;6427;49.754;6.106;2022-07-03T06:23:57;16.70;99.90
12726;DHT22;6427;49.754;6.106;2022-07-03T06:26:26;16.80;99.90
12726;DHT22;6427;49.754;6.106;2022-07-03T06:28:54;16.80;99.90
12726;DHT22;6427;49.754;6.106;2022-07-03T06:31:21;16.90;99.90
12726;DHT22;6427;49.754;6.106;2022-07-03T06:33:49;17.00;99.90
12726;DHT22;6427;49.754;6.106;2022-07-03T06:36:17;17.10;99.90
12726;DHT22;6427;49.754;6.106;2022-07-03T06:38:44;17.20;99.90
12726;DHT22;6427;49.754;6.106;2022-07-03T06:41:12;17.30;99.90
12726;DHT22;6427;49.754;6.106;2022-07-03T06:43:39;17.60;99.90
12726;DHT22;6427;49.754;6.106;2022-07-03T06:46:07;17.70;99.90
12726;DHT22;6427;49.754;6.106;2022-07-03T06:48:34;17.80;99.90
12726;DHT22;6427;49.754;6.106;2022-07-03T06:51:02;17.90;99.90
12726;DHT22;6427;49.754;6.106;2022-07-03T06:53:30;18.10;99.90
12726;DHT22;6427;49.754;6.106;2022-07-03T06:55:59;18.20;99.90
12726;DHT22;6427;49.754;6.106;2022-07-03T06:58:26;18.20;99.90
12726;DHT22;6427;49.754;6.106;2022-07-03T07:00:54;18.30;99.90
12726;DHT22;6427;49.754;6.106;2022-07-03T07:03:22;18.40;99.90
12726;DHT22;6427;49.754;6.106;2022-07-03T07:05:50;18.80;99.90
12726;DHT22;6427;49.754;6.106;2022-07-03T07:08:18;18.80;99.90
12726;DHT22;6427;49.754;6.106;2022-07-03T07:10:45;18.90;99.90
12726;DHT22;6427;49.754;6.106;2022-07-03T07:13:13;19.00;99.90
12726;DHT22;6427;49.754;6.106;2022-07-03T07:15:40;19.10;99.90
12726;DHT22;6427;49.754;6.106;2022-07-03T07:18:08;19.20;99.90
12726;DHT22;6427;49.754;6.106;2022-07-03T07:20:37;19.70;99.90
12726;DHT22;6427;49.754;6.106;2022-07-03T07:23:05;19.80;99.90
12726;DHT22;6427;49.754;6.106;2022-07-03T07:25:33;19.80;99.90
12726;DHT22;6427;49.754;6.106;2022-07-03T07:28:00;19.80;99.90
12726;DHT22;6427;49.754;6.106;2022-07-03T07:30:28;19.90;99.90
12726;DHT22;6427;49.754;6.106;2022-07-03T07:32:55;19.90;99.90
12726;DHT22;6427;49.754;6.106;2022-07-03T07:35:23;20.20;99.90
12726;DHT22;6427;49.754;6.106;2022-07-03T07:37:51;20.60;99.90
12726;DHT22;6427;49.754;6.106;2022-07-03T07:40:20;20.90;99.90
12726;DHT22;6427;49.754;6.106;2022-07-03T07:42:47;20.90;99.90
12726;DHT22;6427;49.754;6.106;2022-07-03T07:45:15;21.00;99.80
12726;DHT22;6427;49.754;6.106;2022-07-03T07:47:42;21.20;98.90
12726;DHT22;6427;49.754;6.106;2022-07-03T07:50:10;21.20;98.50
12726;DHT22;6427;49.754;6.106;2022-07-03T07:52:38;21.20;98.50
12726;DHT22;6427;49.754;6.106;2022-07-03T07:55:07;21.30;98.70
12726;DHT22;6427;49.754;6.106;2022-07-03T07:57:35;21.30;98.40
12726;DHT22;6427;49.754;6.106;2022-07-03T08:00:06;21.50;98.70
12726;DHT22;6427;49.754;6.106;2022-07-03T08:02:33;21.50;98.40
12726;DHT22;6427;49.754;6.106;2022-07-03T08:05:19;21.60;97.80
12726;DHT22;6427;49.754;6.106;2022-07-03T08:08:12;21.70;97.50
12726;DHT22;6427;49.754;6.106;2022-07-03T08:10:48;21.70;97.10
12726;DHT22;6427;49.754;6.106;2022-07-03T08:13:12;22.00;96.10
12726;DHT22;6427;49.754;6.106;2022-07-03T08:15:41;22.20;94.90
12726;DHT22;6427;49.754;6.106;2022-07-03T08:18:08;22.20;94.90
12726;DHT22;6427;49.754;6.106;2022-07-03T08:20:36;22.20;94.60
12726;DHT22;6427;49.754;6.106;2022-07-03T08:23:04;22.40;93.90
12726;DHT22;6427;49.754;6.106;2022-07-03T08:25:32;22.40;93.90
12726;DHT22;6427;49.754;6.106;2022-07-03T08:27:59;22.50;93.40
12726;DHT22;6427;49.754;6.106;2022-07-03T08:30:27;22.70;92.40
12726;DHT22;6427;49.754;6.106;2022-07-03T08:32:55;22.80;91.90
12726;DHT22;6427;49.754;6.106;2022-07-03T08:35:22;22.80;91.30
12726;DHT22;6427;49.754;6.106;2022-07-03T08:37:50;22.90;90.70
12726;DHT22;6427;49.754;6.106;2022-07-03T08:40:18;23.00;89.90
12726;DHT22;6427;49.754;6.106;2022-07-03T08:42:54;23.20;88.70
12726;DHT22;6427;49.754;6.106;2022-07-03T08:45:22;23.50;86.10
12726;DHT22;6427;49.754;6.106;2022-07-03T08:47:50;23.50;85.60
12726;DHT22;6427;49.754;6.106;2022-07-03T08:50:18;23.60;84.50
12726;DHT22;6427;49.754;6.106;2022-07-03T08:52:45;23.70;82.00
12726;DHT22;6427;49.754;6.106;2022-07-03T08:55:14;23.70;78.40
12726;DHT22;6427;49.754;6.106;2022-07-03T08:57:41;23.70;78.40
12726;DHT22;6427;49.754;6.106;2022-07-03T09:00:09;23.80;77.80
12726;DHT22;6427;49.754;6.106;2022-07-03T09:02:36;23.90;76.20
12726;DHT22;6427;49.754;6.106;2022-07-03T09:05:03;24.00;76.10
12726;DHT22;6427;49.754;6.106;2022-07-03T09:07:33;24.00;75.70
12726;DHT22;6427;49.754;6.106;2022-07-03T09:09:59;24.20;75.50
12726;DHT22;6427;49.754;6.106;2022-07-03T09:12:29;24.30;74.30
12726;DHT22;6427;49.754;6.106;2022-07-03T09:14:55;24.40;72.70
12726;DHT22;6427;49.754;6.106;2022-07-03T09:17:22;24.40;71.50
12726;DHT22;6427;49.754;6.106;2022-07-03T09:19:50;24.40;69.80
12726;DHT22;6427;49.754;6.106;2022-07-03T09:22:24;24.50;68.30
12726;DHT22;6427;49.754;6.106;2022-07-03T09:24:52;24.80;66.10
12726;DHT22;6427;49.754;6.106;2022-07-03T09:27:21;24.90;65.60
12726;DHT22;6427;49.754;6.106;2022-07-03T09:29:51;24.90;65.50
12726;DHT22;6427;49.754;6.106;2022-07-03T09:32:19;25.20;61.00
12726;DHT22;6427;49.754;6.106;2022-07-03T09:34:47;25.30;60.50
12726;DHT22;6427;49.754;6.106;2022-07-03T09:37:17;25.30;60.40
12726;DHT22;6427;49.754;6.106;2022-07-03T09:39:43;25.30;61.60
12726;DHT22;6427;49.754;6.106;2022-07-03T09:42:10;25.20;61.40
12726;DHT22;6427;49.754;6.106;2022-07-03T09:44:39;25.30;61.60
12726;DHT22;6427;49.754;6.106;2022-07-03T09:47:09;25.50;61.60
12726;DHT22;6427;49.754;6.106;2022-07-03T09:52:30;25.60;60.10
12726;DHT22;6427;49.754;6.106;2022-07-03T09:54:57;25.60;58.50
12726;DHT22;6427;49.754;6.106;2022-07-03T09:57:26;25.70;57.50
12726;DHT22;6427;49.754;6.106;2022-07-03T09:59:59;25.90;56.70
12726;DHT22;6427;49.754;6.106;2022-07-03T10:02:20;25.90;55.80
12726;DHT22;6427;49.754;6.106;2022-07-03T10:04:47;25.90;55.80
12726;DHT22;6427;49.754;6.106;2022-07-03T10:07:15;26.00;54.90
12726;DHT22;6427;49.754;6.106;2022-07-03T10:09:42;26.00;54.30
12726;DHT22;6427;49.754;6.106;2022-07-03T10:12:10;26.10;53.00
12726;DHT22;6427;49.754;6.106;2022-07-03T10:14:38;26.30;53.40
12726;DHT22;6427;49.754;6.106;2022-07-03T10:17:05;26.50;53.10
12726;DHT22;6427;49.754;6.106;2022-07-03T10:19:37;26.70;50.40
12726;DHT22;6427;49.754;6.106;2022-07-03T10:22:02;26.70;50.70
12726;DHT22;6427;49.754;6.106;2022-07-03T10:24:30;26.50;50.80
12726;DHT22;6427;49.754;6.106;2022-07-03T10:26:57;26.50;50.80
12726;DHT22;6427;49.754;6.106;2022-07-03T10:29:26;26.40;49.90
12726;DHT22;6427;49.754;6.106;2022-07-03T10:31:52;26.60;49.60
12726;DHT22;6427;49.754;6.106;2022-07-03T10:34:21;26.70;49.90
12726;DHT22;6427;49.754;6.106;2022-07-03T10:36:58;26.90;50.00
12726;DHT22;6427;49.754;6.106;2022-07-03T10:42:05;27.00;49.30
12726;DHT22;6427;49.754;6.106;2022-07-03T10:45:07;26.90;49.10
12726;DHT22;6427;49.754;6.106;2022-07-03T10:47:47;26.90;48.70
12726;DHT22;6427;49.754;6.106;2022-07-03T10:50:22;26.80;48.50
12726;DHT22;6427;49.754;6.106;2022-07-03T10:52:45;26.70;48.50
12726;DHT22;6427;49.754;6.106;2022-07-03T10:55:14;26.80;47.50
12726;DHT22;6427;49.754;6.106;2022-07-03T10:57:41;26.80;48.00
12726;DHT22;6427;49.754;6.106;2022-07-03T11:00:13;26.80;48.90
12726;DHT22;6427;49.754;6.106;2022-07-03T11:02:50;26.90;48.70
12726;DHT22;6427;49.754;6.106;2022-07-03T11:05:19;26.90;48.60
12726;DHT22;6427;49.754;6.106;2022-07-03T11:25:59;27.90;47.90
12726;DHT22;6427;49.754;6.106;2022-07-03T11:36:25;27.90;46.60
12726;DHT22;6427;49.754;6.106;2022-07-03T11:41:26;27.90;46.30
12726;DHT22;6427;49.754;6.106;2022-07-03T11:43:54;27.90;46.40
12726;DHT22;6427;49.754;6.106;2022-07-03T11:46:24;27.80;47.00
12726;DHT22;6427;49.754;6.106;2022-07-03T11:49:08;27.90;46.20
12726;DHT22;6427;49.754;6.106;2022-07-03T11:51:35;27.90;46.20
12726;DHT22;6427;49.754;6.106;2022-07-03T11:54:03;27.80;46.50
12726;DHT22;6427;49.754;6.106;2022-07-03T11:56:30;27.70;47.00
12726;DHT22;6427;49.754;6.106;2022-07-03T11:58:58;27.70;47.50
12726;DHT22;6427;49.754;6.106;2022-07-03T12:03:53;27.60;48.10
12726;DHT22;6427;49.754;6.106;2022-07-03T12:06:20;27.70;47.70
12726;DHT22;6427;49.754;6.106;2022-07-03T12:08:48;27.60;47.60
12726;DHT22;6427;49.754;6.106;2022-07-03T12:11:16;27.70;48.40
12726;DHT22;6427;49.754;6.106;2022-07-03T12:13:45;27.80;47.90
12726;DHT22;6427;49.754;6.106;2022-07-03T12:16:13;27.70;47.80
12726;DHT22;6427;49.754;6.106;2022-07-03T12:18:53;27.80;48.60
12726;DHT22;6427;49.754;6.106;2022-07-03T12:21:22;27.80;48.60
12726;DHT22;6427;49.754;6.106;2022-07-03T12:23:52;27.80;48.10
12726;DHT22;6427;49.754;6.106;2022-07-03T12:26:31;27.80;48.10
12726;DHT22;6427;49.754;6.106;2022-07-03T12:29:01;27.80;48.10
12726;DHT22;6427;49.754;6.106;2022-07-03T12:31:28;27.80;47.50
12726;DHT22;6427;49.754;6.106;2022-07-03T12:33:59;28.00;47.50
12726;DHT22;6427;49.754;6.106;2022-07-03T12:36:26;28.00;47.20
12726;DHT22;6427;49.754;6.106;2022-07-03T12:38:57;28.20;47.40
12726;DHT22;6427;49.754;6.106;2022-07-03T12:41:21;28.20;47.60
12726;DHT22;6427;49.754;6.106;2022-07-03T12:43:49;28.20;47.70
12726;DHT22;6427;49.754;6.106;2022-07-03T12:46:23;28.20;47.70
12726;DHT22;6427;49.754;6.106;2022-07-03T12:48:50;28.20;47.90
12726;DHT22;6427;49.754;6.106;2022-07-03T12:54:03;28.30;48.00
12726;DHT22;6427;49.754;6.106;2022-07-03T12:56:31;28.50;47.50
12726;DHT22;6427;49.754;6.106;2022-07-03T12:58:59;28.70;47.90
12726;DHT22;6427;49.754;6.106;2022-07-03T13:01:45;28.90;47.80
12726;DHT22;6427;49.754;6.106;2022-07-03T13:04:12;29.10;46.70
12726;DHT22;6427;49.754;6.106;2022-07-03T13:06:42;29.00;45.90
12726;DHT22;6427;49.754;6.106;2022-07-03T13:09:10;29.00;46.50
12726;DHT22;6427;49.754;6.106;2022-07-03T13:11:41;29.10;46.00
12726;DHT22;6427;49.754;6.106;2022-07-03T13:14:14;29.00;46.70
12726;DHT22;6427;49.754;6.106;2022-07-03T13:19:09;28.80;46.70
12726;DHT22;6427;49.754;6.106;2022-07-03T13:21:37;28.70;46.50
12726;DHT22;6427;49.754;6.106;2022-07-03T13:24:06;28.70;47.10
12726;DHT22;6427;49.754;6.106;2022-07-03T13:26:33;28.70;47.10
12726;DHT22;6427;49.754;6.106;2022-07-03T13:29:02;28.80;46.30
12726;DHT22;6427;49.754;6.106;2022-07-03T13:31:30;28.80;45.70
12726;DHT22;6427;49.754;6.106;2022-07-03T13:33:58;28.80;46.70
12726;DHT22;6427;49.754;6.106;2022-07-03T13:36:25;28.80;46.20
12726;DHT22;6427;49.754;6.106;2022-07-03T13:38:52;28.70;46.40
12726;DHT22;6427;49.754;6.106;2022-07-03T13:41:20;28.60;46.70
12726;DHT22;6427;49.754;6.106;2022-07-03T13:43:48;28.60;46.30
12726;DHT22;6427;49.754;6.106;2022-07-03T13:46:16;28.50;46.80
12726;DHT22;6427;49.754;6.106;2022-07-03T13:48:44;28.50;46.80
12726;DHT22;6427;49.754;6.106;2022-07-03T13:51:12;28.60;47.30
12726;DHT22;6427;49.754;6.106;2022-07-03T13:53:40;28.60;46.70
12726;DHT22;6427;49.754;6.106;2022-07-03T13:56:08;28.90;46.00
12726;DHT22;6427;49.754;6.106;2022-07-03T13:58:36;28.90;46.00
12726;DHT22;6427;49.754;6.106;2022-07-03T14:01:03;29.00;45.30
12726;DHT22;6427;49.754;6.106;2022-07-03T14:03:31;29.10;45.40
12726;DHT22;6427;49.754;6.106;2022-07-03T14:05:58;29.00;45.50
12726;DHT22;6427;49.754;6.106;2022-07-03T14:08:26;29.00;46.50
12726;DHT22;6427;49.754;6.106;2022-07-03T14:10:54;29.00;47.50
12726;DHT22;6427;49.754;6.106;2022-07-03T14:13:22;29.00;47.50
12726;DHT22;6427;49.754;6.106;2022-07-03T14:15:51;29.10;47.40
12726;DHT22;6427;49.754;6.106;2022-07-03T14:18:18;29.10;46.90
12726;DHT22;6427;49.754;6.106;2022-07-03T14:20:46;29.10;46.90
12726;DHT22;6427;49.754;6.106;2022-07-03T14:23:13;29.20;47.00
12726;DHT22;6427;49.754;6.106;2022-07-03T14:25:41;29.30;46.40
12726;DHT22;6427;49.754;6.106;2022-07-03T14:28:09;29.50;46.60
12726;DHT22;6427;49.754;6.106;2022-07-03T14:30:54;29.40;46.70
12726;DHT22;6427;49.754;6.106;2022-07-03T14:33:41;29.40;47.00
12726;DHT22;6427;49.754;6.106;2022-07-03T14:36:08;29.40;46.50
12726;DHT22;6427;49.754;6.106;2022-07-03T14:38:36;29.40;46.20
12726;DHT22;6427;49.754;6.106;2022-07-03T14:41:03;29.70;46.40
12726;DHT22;6427;49.754;6.106;2022-07-03T14:43:31;29.90;45.30
12726;DHT22;6427;49.754;6.106;2022-07-03T14:45:59;29.90;45.30
12726;DHT22;6427;49.754;6.106;2022-07-03T14:48:26;30.10;45.20
12726;DHT22;6427;49.754;6.106;2022-07-03T14:50:54;30.10;44.90
12726;DHT22;6427;49.754;6.106;2022-07-03T14:53:21;30.00;45.10
12726;DHT22;6427;49.754;6.106;2022-07-03T14:55:50;29.90;44.70
12726;DHT22;6427;49.754;6.106;2022-07-03T14:58:18;29.90;44.60
12726;DHT22;6427;49.754;6.106;2022-07-03T15:00:46;29.90;45.30
12726;DHT22;6427;49.754;6.106;2022-07-03T15:03:17;29.90;45.10
12726;DHT22;6427;49.754;6.106;2022-07-03T15:05:43;29.90;45.10
12726;DHT22;6427;49.754;6.106;2022-07-03T15:08:16;30.40;44.20
12726;DHT22;6427;49.754;6.106;2022-07-03T15:10:42;30.30;44.10
12726;DHT22;6427;49.754;6.106;2022-07-03T15:13:10;30.50;44.50
12726;DHT22;6427;49.754;6.106;2022-07-03T15:15:37;30.50;44.40
12726;DHT22;6427;49.754;6.106;2022-07-03T15:18:05;30.50;44.10
12726;DHT22;6427;49.754;6.106;2022-07-03T15:20:34;30.50;44.30
12726;DHT22;6427;49.754;6.106;2022-07-03T15:23:01;30.50;44.10
12726;DHT22;6427;49.754;6.106;2022-07-03T15:25:29;30.50;44.00
12726;DHT22;6427;49.754;6.106;2022-07-03T15:27:56;30.50;43.80
12726;DHT22;6427;49.754;6.106;2022-07-03T15:30:24;30.40;44.00
12726;DHT22;6427;49.754;6.106;2022-07-03T15:32:52;30.50;44.00
12726;DHT22;6427;49.754;6.106;2022-07-03T15:35:20;30.50;44.00
12726;DHT22;6427;49.754;6.106;2022-07-03T15:40:31;30.70;43.40
12726;DHT22;6427;49.754;6.106;2022-07-03T15:51:50;30.80;43.00
12726;DHT22;6427;49.754;6.106;2022-07-03T15:54:18;30.90;43.60
12726;DHT22;6427;49.754;6.106;2022-07-03T15:56:42;30.90;44.00
12726;DHT22;6427;49.754;6.106;2022-07-03T15:59:13;31.20;43.10
12726;DHT22;6427;49.754;6.106;2022-07-03T16:01:43;31.20;42.50
12726;DHT22;6427;49.754;6.106;2022-07-03T16:04:33;31.10;42.30
12726;DHT22;6427;49.754;6.106;2022-07-03T16:06:57;31.10;42.20
12726;DHT22;6427;49.754;6.106;2022-07-03T16:09:24;31.10;42.30
12726;DHT22;6427;49.754;6.106;2022-07-03T16:11:52;31.10;42.30
12726;DHT22;6427;49.754;6.106;2022-07-03T16:14:19;31.20;40.90
12726;DHT22;6427;49.754;6.106;2022-07-03T16:16:48;31.20;40.90
12726;DHT22;6427;49.754;6.106;2022-07-03T16:19:16;31.10;41.50
12726;DHT22;6427;49.754;6.106;2022-07-03T16:21:44;31.10;41.50
12726;DHT22;6427;49.754;6.106;2022-07-03T16:24:11;31.00;42.10
12726;DHT22;6427;49.754;6.106;2022-07-03T16:26:39;31.00;41.70
12726;DHT22;6427;49.754;6.106;2022-07-03T16:29:07;31.30;41.50
12726;DHT22;6427;49.754;6.106;2022-07-03T16:31:40;31.40;41.50
12726;DHT22;6427;49.754;6.106;2022-07-03T16:34:25;31.40;40.20
12726;DHT22;6427;49.754;6.106;2022-07-03T16:36:53;31.40;40.00
12726;DHT22;6427;49.754;6.106;2022-07-03T16:39:35;31.40;39.20
12726;DHT22;6427;49.754;6.106;2022-07-03T16:42:02;31.20;39.10
12726;DHT22;6427;49.754;6.106;2022-07-03T16:44:31;31.10;39.30
12726;DHT22;6427;49.754;6.106;2022-07-03T16:46:58;31.00;39.90
12726;DHT22;6427;49.754;6.106;2022-07-03T16:49:26;31.00;39.60
12726;DHT22;6427;49.754;6.106;2022-07-03T16:51:55;30.90;39.40
12726;DHT22;6427;49.754;6.106;2022-07-03T16:54:20;30.90;38.80
12726;DHT22;6427;49.754;6.106;2022-07-03T16:56:48;31.10;38.90
12726;DHT22;6427;49.754;6.106;2022-07-03T16:59:16;31.10;38.50
12726;DHT22;6427;49.754;6.106;2022-07-03T17:01:44;31.10;38.40
12726;DHT22;6427;49.754;6.106;2022-07-03T17:04:12;31.10;38.80
12726;DHT22;6427;49.754;6.106;2022-07-03T17:06:39;31.20;37.80
12726;DHT22;6427;49.754;6.106;2022-07-03T17:09:07;31.30;36.80
12726;DHT22;6427;49.754;6.106;2022-07-03T17:11:34;31.20;37.00
12726;DHT22;6427;49.754;6.106;2022-07-03T17:14:02;31.20;37.30